This is the latest recevied weather packets stored in our database for station/object K1LVA. If no packets are shown the sender has not sent any weather packets the latest 10 day(s).
| Time | Temp. | Humidity | Pressure | Rain* | Wind** | Luminosity | Snow |
|---|---|---|---|---|---|---|---|
| 1777582525 | 24.44° C | 67% | 1008.9 hPa | 0 mm | - | 408 W/m² | - |
| 1777581608 | 24.44° C | 68% | 1008.9 hPa | 0 mm | - | 198 W/m² | - |
| 1777581303 | 25° C | 66% | 1009 hPa | 0 mm | - | 217 W/m² | - |
| 1777580998 | 24.44° C | 67% | 1009.1 hPa | 0 mm | - | 216 W/m² | - |
| 1777580697 | 24.44° C | 68% | 1008.8 hPa | 0 mm | - | 164 W/m² | - |
| 1777580090 | 25° C | 67% | 1008.8 hPa | 0 mm | - | 141 W/m² | - |
| 1777579787 | 25.56° C | 65% | 1008.9 hPa | 0 mm | - | 124 W/m² | - |
| 1777579484 | 25.56° C | 64% | 1009.1 hPa | 0 mm | - | 416 W/m² | - |
| 1777578875 | 25° C | 66% | 1009.3 hPa | 0 mm | - | 768 W/m² | - |
| 1777578266 | 25.56° C | 66% | 1009.3 hPa | 0 mm | - | 528 W/m² | - |
| 1777577657 | 25° C | 69% | 1009.2 hPa | 0 mm | - | 773 W/m² | - |
| 1777577355 | 24.44° C | 70% | 1009.4 hPa | 0 mm | - | 324 W/m² | - |
| 1777576748 | 24.44° C | 71% | 1009.8 hPa | 0 mm | - | 241 W/m² | - |
| 1777576446 | 24.44° C | 69% | 1009.7 hPa | 0 mm | - | 244 W/m² | - |
| 1777576143 | 24.44° C | 71% | 1009.5 hPa | 0 mm | - | 239 W/m² | - |
| 1777575838 | 24.44° C | 70% | 1009.8 hPa | 0 mm | - | 253 W/m² | - |
| 1777575231 | 24.44° C | 71% | 1009.7 hPa | 0 mm | - | 709 W/m² | - |
| 1777574016 | 23.89° C | 74% | 1009.6 hPa | 0 mm | - | 229 W/m² | - |
| 1777573716 | 23.89° C | 74% | 1010 hPa | 0 mm | - | 291 W/m² | - |
| 1777572501 | 23.33° C | 75% | 1009.8 hPa | 0 mm | - | 696 W/m² | - |
| 1777570377 | 22.78° C | 79% | 1010 hPa | 0 mm | - | 378 W/m² | - |
| 1777569460 | 22.78° C | 80% | 1010.1 hPa | 0 mm | - | 297 W/m² | - |
| 1777564913 | 20° C | 90% | 1010.3 hPa | 0 mm | - | 214 W/m² | - |
| 1777563392 | 20° C | 90% | 1010.7 hPa | 0 mm | - | 162 W/m² | - |
| 1777561573 | 19.44° C | 95% | 1009.7 hPa | 0 mm | - | 186 W/m² | - |
* Rain latest hour (hover to see other rain measurements)
** Current wind speed in m/s (hover to see current wind gust speed)